createdAt,value
2022-08-23T00:02:22.929Z,101083.31
2022-08-23T00:05:08.456Z,101088.94
2022-08-23T00:07:39.213Z,101097.09
2022-08-23T00:10:09.227Z,101093.50
2022-08-23T00:12:36.491Z,101089.75
2022-08-23T00:15:08.788Z,101102.38
2022-08-23T00:17:39.557Z,101102.09
2022-08-23T00:20:08.340Z,101093.75
2022-08-23T00:22:37.171Z,101096.63
2022-08-23T00:25:06.559Z,101096.69
2022-08-23T00:27:34.124Z,101088.81
2022-08-23T00:30:01.654Z,101093.91
2022-08-23T00:32:33.123Z,101091.00
2022-08-23T00:35:01.557Z,101084.34
2022-08-23T00:37:29.904Z,101081.09
2022-08-23T00:39:56.462Z,101084.84
2022-08-23T00:42:41.625Z,101077.72
2022-08-23T00:45:28.973Z,101074.75
2022-08-23T00:47:55.948Z,101078.88
2022-08-23T00:50:35.303Z,101079.19
2022-08-23T00:53:12.910Z,101085.03
2022-08-23T00:55:42.757Z,101079.94
2022-08-23T00:58:09.967Z,101082.63
2022-08-23T01:00:37.187Z,101085.13
2022-08-23T01:03:07.980Z,101076.25
2022-08-23T01:05:45.775Z,101078.03
2022-08-23T01:08:12.330Z,101085.66
2022-08-23T01:10:47.978Z,101087.25
2022-08-23T01:13:19.466Z,101081.38
2022-08-23T01:15:50.665Z,101078.28
2022-08-23T01:18:22.329Z,101076.97
2022-08-23T01:20:56.565Z,101077.31
2022-08-23T01:23:37.617Z,101083.16
2022-08-23T01:26:05.274Z,101089.84
2022-08-23T01:28:33.134Z,101089.63
2022-08-23T01:31:00.916Z,101089.06
2022-08-23T01:33:29.868Z,101083.97
2022-08-23T01:35:58.746Z,101081.00
2022-08-23T01:38:28.681Z,101086.44
2022-08-23T01:41:00.077Z,101082.19
2022-08-23T01:43:28.888Z,101082.38
2022-08-23T01:45:55.846Z,101085.06
2022-08-23T01:48:23.906Z,101088.22
2022-08-23T01:50:50.734Z,101079.94
2022-08-23T01:53:17.519Z,101090.53
2022-08-23T01:55:48.371Z,101093.88
2022-08-23T01:58:17.291Z,101086.72
2022-08-23T02:00:44.545Z,101094.59
2022-08-23T02:03:13.477Z,101094.09
2022-08-23T02:05:41.412Z,101086.44
2022-08-23T02:08:28.787Z,101091.34
2022-08-23T02:10:56.951Z,101096.69
2022-08-23T02:13:25.922Z,101093.94
2022-08-23T02:15:52.746Z,101096.09
2022-08-23T02:18:21.112Z,101098.38
2022-08-23T02:20:51.613Z,101091.03
2022-08-23T02:23:20.358Z,101087.00
2022-08-23T02:25:46.893Z,101095.09
2022-08-23T02:28:14.751Z,101096.56
2022-08-23T02:30:41.480Z,101093.75
2022-08-23T02:33:09.886Z,101100.94
2022-08-23T02:35:37.699Z,101100.09
2022-08-23T02:38:09.412Z,101104.84
2022-08-23T02:40:36.368Z,101105.34
2022-08-23T02:43:04.789Z,101102.25
2022-08-23T02:45:33.005Z,101109.22
2022-08-23T02:48:01.093Z,101105.50
2022-08-23T02:50:36.069Z,101106.66
2022-08-23T02:53:04.406Z,101105.50
2022-08-23T02:55:33.164Z,101103.41
2022-08-23T02:58:01.972Z,101099.34
2022-08-23T03:00:30.418Z,101107.50
2022-08-23T03:02:58.090Z,101113.00
2022-08-23T03:05:25.494Z,101110.44
2022-08-23T03:07:52.170Z,101108.78
2022-08-23T03:10:21.777Z,101103.56
2022-08-23T03:12:54.808Z,101112.22
2022-08-23T03:15:21.472Z,101104.41
2022-08-23T03:17:48.984Z,101101.47
2022-08-23T03:20:23.352Z,101105.25
2022-08-23T03:22:54.718Z,101104.75
2022-08-23T03:25:26.426Z,101111.75
2022-08-23T03:28:12.019Z,101105.56
2022-08-23T03:30:43.293Z,101110.75
2022-08-23T03:33:10.505Z,101111.88
2022-08-23T03:35:37.338Z,101106.38
2022-08-23T03:38:04.454Z,101108.16
2022-08-23T03:40:31.723Z,101115.44
2022-08-23T03:42:59.213Z,101116.28
2022-08-23T03:45:29.308Z,101118.72
2022-08-23T03:47:56.393Z,101119.03
2022-08-23T03:50:23.098Z,101124.22
2022-08-23T03:52:51.017Z,101117.06
2022-08-23T03:55:18.418Z,101119.34
2022-08-23T03:57:49.035Z,101127.31
2022-08-23T04:00:20.375Z,101129.09
2022-08-23T04:02:49.497Z,101128.63
2022-08-23T04:05:23.116Z,101129.38
2022-08-23T04:08:10.171Z,101130.06
2022-08-23T04:10:40.830Z,101131.03
2022-08-23T04:13:09.131Z,101137.84
2022-08-23T04:15:36.126Z,101129.25
2022-08-23T04:18:03.082Z,101134.66
2022-08-23T04:20:30.223Z,101140.00
2022-08-23T04:23:00.562Z,101129.97
2022-08-23T04:25:35.505Z,101134.66
2022-08-23T04:28:04.237Z,101129.63
2022-08-23T04:30:32.993Z,101127.53
2022-08-23T04:33:01.694Z,101138.56
2022-08-23T04:35:30.186Z,101144.06
2022-08-23T04:37:56.984Z,101146.03
2022-08-23T04:40:42.684Z,101146.50
2022-08-23T04:43:09.835Z,101152.97
2022-08-23T04:45:39.032Z,101152.66
2022-08-23T04:48:10.475Z,101152.97
2022-08-23T04:50:41.335Z,101154.13
2022-08-23T04:53:18.285Z,101155.91
2022-08-23T04:55:55.940Z,101162.72
2022-08-23T04:58:22.562Z,101154.13
2022-08-23T05:00:52.552Z,101162.72
2022-08-23T05:03:24.299Z,101163.38
2022-08-23T05:05:52.741Z,101163.38
2022-08-23T05:08:22.349Z,101167.09
2022-08-23T05:10:48.901Z,101163.53
2022-08-23T05:13:15.959Z,101171.31
2022-08-23T05:15:43.658Z,101172.44
2022-08-23T05:18:10.715Z,101170.81
2022-08-23T05:20:39.322Z,101176.50
2022-08-23T05:23:05.997Z,101188.19
2022-08-23T05:25:52.422Z,101187.06
2022-08-23T05:28:33.465Z,101183.13
2022-08-23T05:31:17.649Z,101181.84
2022-08-23T05:33:51.913Z,101182.31
2022-08-23T05:36:35.347Z,101183.28
2022-08-23T05:39:01.875Z,101189.63
2022-08-23T05:41:37.675Z,101192.50
2022-08-23T05:44:06.862Z,101201.13
2022-08-23T05:46:34.421Z,101195.44
2022-08-23T05:49:21.087Z,101200.97
2022-08-23T05:51:51.639Z,101195.25
2022-08-23T05:54:20.421Z,101206.00
2022-08-23T05:56:59.346Z,101209.72
2022-08-23T05:59:25.860Z,101207.09
2022-08-23T06:01:52.766Z,101211.81
2022-08-23T06:04:19.969Z,101199.47
2022-08-23T06:06:48.454Z,101202.75
2022-08-23T06:09:18.242Z,101205.34
2022-08-23T06:11:46.651Z,101201.75
2022-08-23T06:14:14.442Z,101194.28
2022-08-23T06:16:46.496Z,101199.16
2022-08-23T06:19:17.493Z,101197.97
2022-08-23T06:21:47.815Z,101198.75
2022-08-23T06:24:19.551Z,101202.81
2022-08-23T06:26:54.085Z,101200.84
2022-08-23T06:29:23.686Z,101213.16
2022-08-23T06:32:10.239Z,101209.53
2022-08-23T06:34:43.806Z,101211.34
2022-08-23T06:37:43.755Z,101208.06
2022-08-23T06:40:39.674Z,101213.28
2022-08-23T06:43:40.183Z,101221.34
2022-08-23T06:46:23.535Z,101223.63
2022-08-23T06:48:51.736Z,101223.94
2022-08-23T06:51:23.763Z,101220.69
2022-08-23T06:54:07.544Z,101222.34
2022-08-23T06:56:49.331Z,101214.34
2022-08-23T06:59:21.406Z,101225.41
2022-08-23T07:02:09.427Z,101221.44
2022-08-23T07:04:55.833Z,101226.84
2022-08-23T07:07:37.608Z,101221.91
2022-08-23T07:10:11.362Z,101223.78
2022-08-23T07:12:42.089Z,101241.31
2022-08-23T07:15:11.563Z,101245.38
2022-08-23T07:17:39.593Z,101244.63
2022-08-23T07:20:07.444Z,101246.03
2022-08-23T07:22:36.478Z,101249.72
2022-08-23T07:25:04.540Z,101252.19
2022-08-23T07:27:33.323Z,101249.72
2022-08-23T07:30:07.059Z,101253.69
2022-08-23T07:32:35.846Z,101250.72
2022-08-23T07:35:22.225Z,101260.88
2022-08-23T07:37:51.334Z,101264.91
2022-08-23T07:40:20.504Z,101268.50
2022-08-23T07:42:56.965Z,101258.47
2022-08-23T07:45:26.042Z,101270.88
2022-08-23T07:47:56.797Z,101262.00
2022-08-23T07:50:25.511Z,101260.88
2022-08-23T07:53:00.560Z,101264.09
2022-08-23T07:55:32.237Z,101271.50
2022-08-23T07:58:09.145Z,101258.34
2022-08-23T08:00:48.897Z,101261.09
2022-08-23T08:03:35.873Z,101255.09
2022-08-23T08:06:42.756Z,101248.16
2022-08-23T08:09:10.713Z,101260.28
2022-08-23T08:11:37.817Z,101244.56
2022-08-23T08:14:08.292Z,101256.81
2022-08-23T08:16:49.363Z,101247.22
2022-08-23T08:19:25.190Z,101243.72
2022-08-23T08:22:13.028Z,101253.97
2022-08-23T08:25:06.840Z,101259.16
2022-08-23T08:27:36.069Z,101260.16
2022-08-23T08:30:05.721Z,101260.91
2022-08-23T08:32:33.111Z,101265.66
2022-08-23T08:35:00.442Z,101252.59
2022-08-23T08:37:32.107Z,101255.53
2022-08-23T08:39:59.889Z,101249.19
2022-08-23T08:43:00.568Z,101248.69
2022-08-23T08:45:38.385Z,101259.59
2022-08-23T08:48:13.305Z,101255.84
2022-08-23T08:50:52.091Z,101252.38
2022-08-23T08:53:25.409Z,101252.91
2022-08-23T08:56:29.740Z,101254.81
2022-08-23T08:59:36.870Z,101258.28
2022-08-23T09:02:07.474Z,101251.50
2022-08-23T09:05:04.803Z,101257.41
2022-08-23T09:07:56.495Z,101265.47
2022-08-23T09:10:53.247Z,101270.97
2022-08-23T09:13:53.681Z,101268.56
2022-08-23T09:16:39.093Z,101270.03
2022-08-23T09:19:09.794Z,101266.09
2022-08-23T09:21:54.210Z,101264.69
2022-08-23T09:24:20.938Z,101265.34
2022-08-23T09:27:02.107Z,101263.31
2022-08-23T09:29:33.545Z,101266.78
2022-08-23T09:32:03.958Z,101266.22
2022-08-23T09:34:35.061Z,101268.97
2022-08-23T09:37:18.487Z,101269.31
2022-08-23T09:39:51.411Z,101265.56
2022-08-23T09:42:39.532Z,101260.44
2022-08-23T09:45:37.070Z,101245.50
2022-08-23T09:48:07.209Z,101240.88
2022-08-23T09:50:54.740Z,101240.78
2022-08-23T09:53:30.048Z,101247.28
2022-08-23T09:56:11.052Z,101247.09
2022-08-23T09:58:44.408Z,101240.09
2022-08-23T10:01:24.106Z,101241.59
2022-08-23T10:04:25.677Z,101234.19
2022-08-23T10:06:52.974Z,101236.16
2022-08-23T10:09:30.229Z,101232.34
2022-08-23T10:11:59.413Z,101230.22
2022-08-23T10:17:34.227Z,101228.25
2022-08-23T10:20:22.074Z,101234.91
2022-08-23T10:23:04.845Z,101242.25
2022-08-23T10:25:52.705Z,101228.28
2022-08-23T10:29:00.565Z,101230.66
2022-08-23T10:31:53.245Z,101234.16
2022-08-23T10:34:41.372Z,101223.59
2022-08-23T10:37:14.385Z,101219.41
2022-08-23T10:39:56.675Z,101221.72
2022-08-23T10:42:53.291Z,101220.59
2022-08-23T10:45:28.666Z,101217.50
2022-08-23T10:48:13.765Z,101219.38
2022-08-23T10:50:52.045Z,101226.03
2022-08-23T10:53:27.140Z,101216.16
2022-08-23T10:56:04.441Z,101219.38
2022-08-23T10:58:43.427Z,101215.06
2022-08-23T11:01:26.855Z,101210.88
2022-08-23T11:04:16.699Z,101207.50
2022-08-23T11:07:00.501Z,101213.13
2022-08-23T11:09:38.154Z,101207.56
2022-08-23T11:12:21.042Z,101204.22
2022-08-23T11:15:07.267Z,101212.72
2022-08-23T11:17:49.417Z,101204.47
2022-08-23T11:20:51.002Z,101212.75
2022-08-23T11:23:59.372Z,101195.63
2022-08-23T11:26:36.759Z,101202.56
2022-08-23T11:29:06.542Z,101212.59
2022-08-23T11:31:47.233Z,101204.22
2022-08-23T11:34:29.501Z,101206.28
2022-08-23T11:37:19.805Z,101210.72
2022-08-23T11:39:57.790Z,101207.06
2022-08-23T11:42:46.762Z,101196.69
2022-08-23T11:45:37.593Z,101201.44
2022-08-23T11:48:27.387Z,101189.75
2022-08-23T11:50:59.995Z,101191.41
2022-08-23T11:53:54.772Z,101196.31
2022-08-23T11:56:36.664Z,101190.31
2022-08-23T11:59:20.221Z,101196.75
2022-08-23T12:01:47.266Z,101187.22
2022-08-23T12:04:37.880Z,101184.81
2022-08-23T12:07:12.532Z,101178.00
2022-08-23T12:09:41.937Z,101180.03
2022-08-23T12:12:39.278Z,101179.25
2022-08-23T12:15:11.970Z,101178.44
2022-08-23T12:17:41.776Z,101185.63
2022-08-23T12:20:16.803Z,101177.63
2022-08-23T12:22:59.770Z,101179.25
2022-08-23T12:25:30.053Z,101172.00
2022-08-23T12:28:22.052Z,101168.41
2022-08-23T12:31:08.047Z,101173.22
2022-08-23T12:34:12.346Z,101174.03
2022-08-23T12:37:09.675Z,101170.41
2022-08-23T12:39:40.019Z,101172.00
2022-08-23T12:42:15.539Z,101170.81
2022-08-23T12:44:45.638Z,101174.41
2022-08-23T12:47:17.011Z,101171.63
2022-08-23T12:49:56.007Z,101163.22
2022-08-23T12:52:26.471Z,101164.41
2022-08-23T12:54:54.990Z,101174.03
2022-08-23T12:57:30.758Z,101161.63
2022-08-23T13:00:17.449Z,101154.75
2022-08-23T13:02:51.516Z,101161.91
2022-08-23T13:05:32.405Z,101161.50
2022-08-23T13:08:04.268Z,101151.88
2022-08-23T13:10:31.613Z,101150.28
2022-08-23T13:12:58.612Z,101145.81
2022-08-23T13:15:52.166Z,101152.66
2022-08-23T13:18:30.191Z,101148.66
2022-08-23T13:21:37.493Z,101147.41
2022-08-23T13:24:39.035Z,101136.25
2022-08-23T13:27:24.611Z,101143.91
2022-08-23T13:29:56.930Z,101143.16
2022-08-23T13:32:30.747Z,101141.19
2022-08-23T13:35:25.269Z,101158.75
2022-08-23T13:37:55.469Z,101147.91
2022-08-23T13:40:26.271Z,101144.31
2022-08-23T13:43:05.193Z,101143.88
2022-08-23T13:45:46.273Z,101144.69
2022-08-23T13:48:28.935Z,101141.41
2022-08-23T13:51:38.889Z,101139.13
2022-08-23T13:54:08.452Z,101139.09
2022-08-23T13:56:48.201Z,101138.69
2022-08-23T13:59:36.535Z,101138.22
2022-08-23T14:02:07.269Z,101135.81
2022-08-23T14:04:37.704Z,101132.19
2022-08-23T14:07:05.356Z,101138.69
2022-08-23T14:09:33.701Z,101135.13
2022-08-23T14:12:14.827Z,101124.63
2022-08-23T14:14:42.773Z,101137.06
2022-08-23T14:17:12.978Z,101135.84
2022-08-23T14:22:32.550Z,101133.03
2022-08-23T14:25:05.117Z,101131.06
2022-08-23T14:27:32.703Z,101138.28
2022-08-23T14:30:01.070Z,101130.66
2022-08-23T14:32:29.035Z,101130.22
2022-08-23T14:34:56.068Z,101128.56
2022-08-23T14:40:10.078Z,101128.63
2022-08-23T14:42:36.735Z,101119.00
2022-08-23T14:45:05.441Z,101115.38
2022-08-23T14:47:32.495Z,101120.19
2022-08-23T14:49:59.829Z,101119.78
2022-08-23T14:52:26.454Z,101111.38
2022-08-23T14:54:52.895Z,101119.47
2022-08-23T14:57:26.811Z,101117.06
2022-08-23T14:59:55.484Z,101111.88
2022-08-23T15:02:25.137Z,101112.63
2022-08-23T15:04:53.172Z,101110.19
2022-08-23T15:07:21.991Z,101114.91
2022-08-23T15:09:50.282Z,101111.38
2022-08-23T15:15:12.998Z,101106.69
2022-08-23T15:17:58.722Z,101109.91
2022-08-23T15:20:31.128Z,101105.91
2022-08-23T15:22:58.246Z,101106.28
2022-08-23T15:25:29.948Z,101105.50
2022-08-23T15:27:56.805Z,101108.31
2022-08-23T15:30:23.945Z,101106.31
2022-08-23T15:32:54.688Z,101100.28
2022-08-23T15:35:24.950Z,101107.13
2022-08-23T15:37:53.541Z,101105.09
2022-08-23T15:40:21.034Z,101107.06
2022-08-23T15:42:47.801Z,101102.31
2022-08-23T15:45:14.756Z,101105.09
2022-08-23T15:47:54.011Z,101106.31
2022-08-23T15:50:27.090Z,101103.13
2022-08-23T15:52:54.186Z,101099.91
2022-08-23T15:55:21.339Z,101103.53
2022-08-23T15:57:50.569Z,101094.72
2022-08-23T16:00:22.450Z,101105.50
2022-08-23T16:03:19.044Z,101096.31
2022-08-23T16:05:38.415Z,101097.91
2022-08-23T16:08:07.205Z,101111.16
2022-08-23T16:10:35.167Z,101099.09
2022-08-23T16:13:03.830Z,101100.72
2022-08-23T16:15:31.155Z,101105.94
2022-08-23T16:17:57.636Z,101103.50
2022-08-23T16:20:24.292Z,101103.53
2022-08-23T16:22:50.743Z,101099.13
2022-08-23T16:25:17.744Z,101099.09
2022-08-23T16:27:44.241Z,101098.31
2022-08-23T16:30:13.089Z,101101.50
2022-08-23T16:32:39.817Z,101099.88
2022-08-23T16:35:07.617Z,101099.09
2022-08-23T16:37:36.176Z,101102.66
2022-08-23T16:40:08.472Z,101101.84
2022-08-23T16:42:35.217Z,101089.84
2022-08-23T16:45:02.147Z,101098.25
2022-08-23T16:47:33.655Z,101103.44
2022-08-23T16:50:00.328Z,101097.75
2022-08-23T16:52:34.824Z,101099.81
2022-08-23T16:55:10.801Z,101109.31
2022-08-23T16:57:37.694Z,101098.50
2022-08-23T17:00:06.913Z,101106.91
2022-08-23T17:02:37.243Z,101098.06
2022-08-23T17:05:06.682Z,101106.03
2022-08-23T17:07:33.518Z,101110.47
2022-08-23T17:10:00.995Z,101111.63
2022-08-23T17:12:27.573Z,101110.34
2022-08-23T17:14:57.102Z,101112.25
2022-08-23T17:17:24.439Z,101115.09
2022-08-23T17:19:50.950Z,101115.31
2022-08-23T17:22:18.858Z,101122.53
2022-08-23T17:24:45.357Z,101122.41
2022-08-23T17:27:15.846Z,101123.50
2022-08-23T17:29:46.378Z,101121.47
2022-08-23T17:32:13.108Z,101125.00
2022-08-23T17:34:39.702Z,101127.44
2022-08-23T17:37:17.762Z,101126.13
2022-08-23T17:39:44.409Z,101129.34
2022-08-23T17:42:10.915Z,101138.69
2022-08-23T17:44:37.619Z,101137.81
2022-08-23T17:47:07.885Z,101141.28
2022-08-23T17:49:34.561Z,101143.59
2022-08-23T17:52:03.810Z,101143.03
2022-08-23T17:54:33.373Z,101146.97
2022-08-23T17:57:01.306Z,101152.03
2022-08-23T17:59:38.362Z,101151.59
2022-08-23T18:02:07.918Z,101146.69
2022-08-23T18:04:34.488Z,101149.22
2022-08-23T18:07:02.127Z,101150.22
2022-08-23T18:09:29.318Z,101156.09
2022-08-23T18:11:56.628Z,101157.81
2022-08-23T18:14:23.395Z,101156.72
2022-08-23T18:16:51.513Z,101159.50
2022-08-23T18:19:18.227Z,101169.91
2022-08-23T18:21:45.208Z,101169.28
2022-08-23T18:24:11.667Z,101166.44
2022-08-23T18:26:57.671Z,101167.09
2022-08-23T18:29:24.883Z,101168.94
2022-08-23T18:31:51.507Z,101173.16
2022-08-23T18:34:18.905Z,101179.25
2022-08-23T18:36:45.410Z,101176.19
2022-08-23T18:39:14.609Z,101189.13
2022-08-23T18:41:41.973Z,101182.56
2022-08-23T18:44:08.685Z,101195.19
2022-08-23T18:46:40.048Z,101188.66
2022-08-23T18:49:09.010Z,101196.78
2022-08-23T18:51:36.244Z,101202.13
2022-08-23T18:54:03.151Z,101201.56
2022-08-23T18:56:29.958Z,101197.44
2022-08-23T18:58:56.443Z,101200.94
2022-08-23T19:01:36.255Z,101208.56
2022-08-23T19:04:05.303Z,101209.88
2022-08-23T19:06:32.162Z,101215.19
2022-08-23T19:09:01.112Z,101209.97
2022-08-23T19:11:30.010Z,101219.09
2022-08-23T19:13:58.001Z,101220.91
2022-08-23T19:16:26.536Z,101228.25
2022-08-23T19:18:54.750Z,101231.31
2022-08-23T19:21:23.479Z,101234.66
2022-08-23T19:23:52.346Z,101241.03
2022-08-23T19:26:30.278Z,101236.22
2022-08-23T19:28:57.416Z,101238.16
2022-08-23T19:31:25.210Z,101239.84
2022-08-23T19:33:51.770Z,101244.38
2022-08-23T19:36:44.714Z,101255.31
2022-08-23T19:39:08.542Z,101258.19
2022-08-23T19:41:38.384Z,101259.00
2022-08-23T19:44:07.929Z,101253.97
2022-08-23T19:47:00.415Z,101258.34
2022-08-23T19:49:28.257Z,101261.94
2022-08-23T19:51:55.770Z,101262.31
2022-08-23T19:54:22.515Z,101257.22
2022-08-23T19:56:57.613Z,101257.91
2022-08-23T19:59:31.180Z,101268.66
2022-08-23T20:01:59.402Z,101271.28
2022-08-23T20:04:29.383Z,101274.66
2022-08-23T20:06:57.677Z,101273.78
2022-08-23T20:09:26.597Z,101279.34
2022-08-23T20:11:53.100Z,101281.03
2022-08-23T20:14:21.945Z,101282.44
2022-08-23T20:16:50.125Z,101287.91
2022-08-23T20:19:18.859Z,101290.41
2022-08-23T20:21:45.306Z,101291.22
2022-08-23T20:24:15.318Z,101302.50
2022-08-23T20:26:47.667Z,101294.44
2022-08-23T20:29:21.653Z,101301.31
2022-08-23T20:31:55.373Z,101297.13
2022-08-23T20:34:23.294Z,101302.94
2022-08-23T20:36:55.993Z,101298.66
2022-08-23T20:39:24.188Z,101301.88
2022-08-23T20:41:51.482Z,101300.41
2022-08-23T20:44:20.122Z,101290.94
2022-08-23T20:46:50.704Z,101300.91
2022-08-23T20:49:21.105Z,101296.50
2022-08-23T20:51:48.250Z,101288.69
2022-08-23T20:54:16.713Z,101293.72
2022-08-23T20:56:43.370Z,101297.28
2022-08-23T20:59:10.105Z,101292.97
2022-08-23T21:01:36.763Z,101296.28
2022-08-23T21:04:03.945Z,101301.63
2022-08-23T21:06:45.112Z,101305.56
2022-08-23T21:09:16.875Z,101305.44
2022-08-23T21:11:44.003Z,101309.25
2022-08-23T21:14:10.464Z,101307.75
2022-08-23T21:16:37.412Z,101312.19
2022-08-23T21:19:04.418Z,101317.41
2022-08-23T21:21:31.306Z,101318.06
2022-08-23T21:23:57.850Z,101332.91
2022-08-23T21:26:24.735Z,101321.38
2022-08-23T21:28:51.748Z,101316.50
2022-08-23T21:31:21.633Z,101316.19
2022-08-23T21:33:48.795Z,101318.16
2022-08-23T21:36:17.254Z,101320.22
2022-08-23T21:38:43.866Z,101318.28
2022-08-23T21:41:30.498Z,101319.00
2022-08-23T21:43:57.116Z,101321.66
2022-08-23T21:46:23.700Z,101315.06
2022-08-23T21:48:50.993Z,101316.69
2022-08-23T21:51:18.777Z,101314.38
2022-08-23T21:53:45.430Z,101322.81
2022-08-23T21:56:11.986Z,101320.84
2022-08-23T21:58:38.415Z,101315.97
2022-08-23T22:01:05.435Z,101323.94
2022-08-23T22:03:32.586Z,101318.50
2022-08-23T22:05:59.299Z,101316.06
2022-08-23T22:08:25.794Z,101315.94
2022-08-23T22:10:58.357Z,101310.97
2022-08-23T22:13:28.837Z,101317.69
2022-08-23T22:15:56.224Z,101315.34
2022-08-23T22:18:22.834Z,101314.41
2022-08-23T22:20:49.421Z,101309.78
2022-08-23T22:23:15.862Z,101312.31
2022-08-23T22:25:42.511Z,101310.91
2022-08-23T22:28:09.115Z,101313.88
2022-08-23T22:30:35.687Z,101317.97
2022-08-23T22:33:03.334Z,101315.38
2022-08-23T22:35:34.753Z,101314.22
2022-08-23T22:38:13.736Z,101312.69
2022-08-23T22:40:50.932Z,101310.97
2022-08-23T22:43:23.854Z,101310.72
2022-08-23T22:46:04.827Z,101312.44
2022-08-23T22:48:37.142Z,101310.34
2022-08-23T22:51:04.179Z,101311.03
2022-08-23T22:53:31.343Z,101318.84
2022-08-23T22:55:58.241Z,101314.56
2022-08-23T22:58:26.299Z,101313.41
2022-08-23T23:00:52.844Z,101321.84
2022-08-23T23:03:20.138Z,101315.28
2022-08-23T23:05:48.101Z,101318.75
2022-08-23T23:08:27.152Z,101322.19
2022-08-23T23:11:00.622Z,101322.78
2022-08-23T23:13:31.605Z,101326.91
2022-08-23T23:16:02.436Z,101325.19
2022-08-23T23:18:33.080Z,101335.72
2022-08-23T23:21:03.111Z,101331.09
2022-08-23T23:23:32.641Z,101324.34
2022-08-23T23:26:00.595Z,101335.16
2022-08-23T23:28:27.586Z,101331.25
2022-08-23T23:30:55.523Z,101332.91
2022-08-23T23:33:22.308Z,101334.75
2022-08-23T23:35:49.345Z,101335.56
2022-08-23T23:38:17.598Z,101325.13
2022-08-23T23:40:44.414Z,101328.28
2022-08-23T23:43:12.989Z,101331.91
2022-08-23T23:45:40.991Z,101330.59
2022-08-23T23:48:08.249Z,101330.47
2022-08-23T23:50:35.718Z,101324.00
2022-08-23T23:53:03.165Z,101330.84
2022-08-23T23:55:33.521Z,101330.44
2022-08-23T23:58:02.633Z,101327.47
